createdAt,value
2023-04-10T00:00:38.392Z,76.20
2023-04-10T00:03:06.430Z,76.20
2023-04-10T00:05:36.562Z,76.50
2023-04-10T00:08:06.752Z,76.80
2023-04-10T00:10:33.942Z,76.90
2023-04-10T00:13:03.866Z,76.90
2023-04-10T00:15:31.514Z,76.80
2023-04-10T00:17:59.449Z,77.00
2023-04-10T00:20:27.391Z,77.30
2023-04-10T00:22:55.876Z,77.50
2023-04-10T00:25:23.654Z,77.70
2023-04-10T00:27:53.114Z,77.80
2023-04-10T00:30:21.277Z,77.90
2023-04-10T00:32:48.629Z,78.10
2023-04-10T00:35:19.508Z,78.20
2023-04-10T00:37:51.275Z,78.20
2023-04-10T00:40:22.738Z,78.20
2023-04-10T00:42:52.451Z,78.30
2023-04-10T00:45:19.727Z,78.40
2023-04-10T00:47:50.573Z,78.20
2023-04-10T00:50:21.955Z,78.40
2023-04-10T00:52:50.291Z,78.50
2023-04-10T00:55:18.099Z,78.50
2023-04-10T00:57:48.573Z,78.40
2023-04-10T01:00:17.280Z,78.40
2023-04-10T01:02:45.546Z,78.30
2023-04-10T01:05:13.944Z,78.10
2023-04-10T01:07:53.268Z,78.00
2023-04-10T01:10:44.197Z,78.00
2023-04-10T01:13:30.551Z,77.80
2023-04-10T01:16:14.918Z,77.50
2023-04-10T01:19:22.946Z,77.50
2023-04-10T01:21:52.194Z,77.20
2023-04-10T01:24:37.205Z,77.20
2023-04-10T01:27:29.659Z,77.00
2023-04-10T01:30:01.769Z,76.80
2023-04-10T01:32:35.158Z,76.90
2023-04-10T01:35:09.237Z,77.10
2023-04-10T01:37:41.433Z,77.10
2023-04-10T01:40:15.788Z,77.10
2023-04-10T01:42:53.184Z,77.30
2023-04-10T01:45:30.046Z,77.50
2023-04-10T01:48:01.091Z,77.60
2023-04-10T01:50:30.932Z,77.70
2023-04-10T01:53:06.878Z,77.80
2023-04-10T01:55:35.144Z,78.20
2023-04-10T01:58:05.112Z,78.20
2023-04-10T02:00:39.223Z,78.10
2023-04-10T02:03:10.619Z,78.30
2023-04-10T02:06:02.709Z,78.40
2023-04-10T02:08:42.957Z,78.50
2023-04-10T02:11:31.679Z,78.60
2023-04-10T02:14:04.615Z,78.70
2023-04-10T02:16:55.904Z,78.50
2023-04-10T02:19:28.249Z,78.50
2023-04-10T02:21:57.341Z,78.40
2023-04-10T02:24:24.601Z,78.30
2023-04-10T02:26:53.406Z,78.30
2023-04-10T02:29:20.760Z,78.10
2023-04-10T02:31:49.246Z,78.00
2023-04-10T02:34:16.884Z,78.00
2023-04-10T02:39:25.890Z,77.90
2023-04-10T02:41:57.124Z,77.90
2023-04-10T02:44:24.220Z,77.90
2023-04-10T02:46:51.624Z,77.90
2023-04-10T02:49:19.387Z,77.90
2023-04-10T02:51:59.582Z,77.80
2023-04-10T02:54:26.971Z,77.80
2023-04-10T02:56:56.271Z,77.80
2023-04-10T02:59:24.390Z,77.70
2023-04-10T03:01:54.517Z,77.60
2023-04-10T03:04:21.844Z,77.90
2023-04-10T03:06:52.298Z,78.00
2023-04-10T03:09:19.431Z,77.90
2023-04-10T03:12:03.779Z,77.90
2023-04-10T03:14:36.810Z,77.80
2023-04-10T03:17:07.798Z,77.80
2023-04-10T03:19:35.224Z,77.80
2023-04-10T03:22:11.181Z,77.80
2023-04-10T03:24:44.836Z,77.70
2023-04-10T03:27:12.505Z,77.60
2023-04-10T03:29:44.357Z,77.60
2023-04-10T03:32:12.215Z,77.50
2023-04-10T03:34:39.676Z,77.40
2023-04-10T03:37:07.467Z,77.40
2023-04-10T03:39:34.932Z,77.30
2023-04-10T03:42:02.277Z,77.30
2023-04-10T03:44:29.639Z,77.20
2023-04-10T03:46:57.045Z,77.00
2023-04-10T03:49:24.356Z,77.10
2023-04-10T03:51:53.954Z,77.10
2023-04-10T03:54:21.353Z,77.20
2023-04-10T03:56:48.875Z,77.00
2023-04-10T03:59:16.148Z,76.90
2023-04-10T04:01:46.304Z,76.80
2023-04-10T04:04:13.769Z,76.80
2023-04-10T04:06:41.443Z,76.70
2023-04-10T04:09:11.781Z,76.50
2023-04-10T04:11:41.670Z,76.40
2023-04-10T04:14:08.973Z,76.30
2023-04-10T04:16:36.490Z,76.10
2023-04-10T04:19:03.574Z,75.60
2023-04-10T04:21:31.626Z,75.20
2023-04-10T04:23:59.366Z,75.00
2023-04-10T04:26:27.263Z,74.80
2023-04-10T04:28:54.344Z,74.70
2023-04-10T04:31:25.306Z,74.50
2023-04-10T04:33:53.403Z,74.50
2023-04-10T04:36:20.965Z,74.40
2023-04-10T04:38:48.704Z,73.80
2023-04-10T04:41:20.629Z,73.20
2023-04-10T04:43:48.320Z,72.60
2023-04-10T04:46:15.859Z,71.80
2023-04-10T04:48:50.498Z,71.30
2023-04-10T04:51:20.614Z,71.30
2023-04-10T04:53:47.893Z,69.80
2023-04-10T04:56:15.402Z,69.90
2023-04-10T04:58:44.162Z,69.80
2023-04-10T05:01:14.033Z,68.90
2023-04-10T05:03:42.227Z,68.70
2023-04-10T05:06:09.890Z,67.60
2023-04-10T05:08:37.197Z,66.70
2023-04-10T05:11:04.654Z,66.50
2023-04-10T05:13:31.981Z,64.40
2023-04-10T05:15:59.413Z,64.20
2023-04-10T05:18:28.585Z,63.50
2023-04-10T05:20:56.332Z,61.30
2023-04-10T05:23:23.531Z,60.70
2023-04-10T05:25:53.722Z,60.40
2023-04-10T05:28:27.382Z,59.90
2023-04-10T05:30:54.992Z,59.50
2023-04-10T05:33:22.382Z,58.60
2023-04-10T05:35:59.578Z,58.70
2023-04-10T05:38:30.877Z,58.40
2023-04-10T05:41:00.122Z,58.00
2023-04-10T05:43:33.181Z,57.10
2023-04-10T05:46:00.523Z,56.70
2023-04-10T05:48:29.160Z,55.70
2023-04-10T05:50:59.427Z,54.90
2023-04-10T05:53:33.917Z,52.70
2023-04-10T05:56:02.249Z,49.60
2023-04-10T05:58:30.272Z,47.80
2023-04-10T06:01:10.101Z,46.50
2023-04-10T06:03:37.868Z,44.30
2023-04-10T06:06:11.721Z,43.50
2023-04-10T06:08:39.129Z,42.80
2023-04-10T06:11:12.666Z,40.10
2023-04-10T06:13:52.909Z,38.50
2023-04-10T06:16:23.155Z,37.30
2023-04-10T06:19:07.699Z,36.50
2023-04-10T06:21:41.466Z,35.10
2023-04-10T06:24:14.227Z,34.70
2023-04-10T06:26:42.103Z,34.80
2023-04-10T06:29:16.211Z,34.50
2023-04-10T06:31:44.824Z,34.20
2023-04-10T06:34:14.276Z,33.60
2023-04-10T06:36:41.789Z,32.90
2023-04-10T06:39:09.190Z,31.90
2023-04-10T06:41:36.496Z,31.50
2023-04-10T06:44:05.603Z,31.30
2023-04-10T06:46:39.759Z,31.00
2023-04-10T06:49:09.529Z,30.70
2023-04-10T06:51:36.962Z,30.60
2023-04-10T06:54:04.052Z,30.00
2023-04-10T06:56:35.295Z,29.80
2023-04-10T06:59:06.088Z,29.70
2023-04-10T07:01:33.378Z,29.50
2023-04-10T07:04:00.468Z,29.10
2023-04-10T07:06:34.582Z,28.90
2023-04-10T07:09:01.839Z,28.80
2023-04-10T07:11:31.409Z,28.60
2023-04-10T07:13:59.289Z,28.30
2023-04-10T07:16:27.876Z,28.50
2023-04-10T07:18:55.559Z,28.20
2023-04-10T07:21:23.056Z,27.80
2023-04-10T07:23:50.948Z,27.40
2023-04-10T07:26:21.090Z,27.50
2023-04-10T07:28:48.340Z,27.20
2023-04-10T07:31:18.320Z,27.20
2023-04-10T07:33:55.111Z,26.80
2023-04-10T07:36:22.726Z,26.70
2023-04-10T07:38:50.170Z,26.60
2023-04-10T07:41:18.598Z,26.30
2023-04-10T07:43:47.172Z,26.50
2023-04-10T07:46:14.719Z,26.30
2023-04-10T07:48:52.860Z,26.20
2023-04-10T07:51:24.331Z,26.00
2023-04-10T07:54:02.583Z,25.80
2023-04-10T07:56:34.613Z,25.60
2023-04-10T07:59:07.537Z,25.40
2023-04-10T08:01:41.237Z,25.50
2023-04-10T08:04:09.386Z,25.50
2023-04-10T08:06:37.293Z,25.20
2023-04-10T08:09:10.740Z,25.30
2023-04-10T08:11:38.834Z,24.70
2023-04-10T08:14:18.299Z,24.80
2023-04-10T08:16:49.169Z,24.90
2023-04-10T08:19:16.479Z,24.70
2023-04-10T08:21:48.320Z,24.70
2023-04-10T08:24:20.628Z,24.80
2023-04-10T08:26:48.143Z,25.00
2023-04-10T08:29:15.454Z,24.90
2023-04-10T08:31:56.622Z,25.30
2023-04-10T08:34:24.825Z,25.00
2023-04-10T08:36:52.121Z,25.10
2023-04-10T08:39:22.189Z,25.40
2023-04-10T08:41:50.418Z,25.40
2023-04-10T08:44:20.520Z,25.40
2023-04-10T08:46:53.379Z,25.50
2023-04-10T08:49:59.321Z,25.60
2023-04-10T08:52:31.358Z,25.20
2023-04-10T08:55:00.716Z,24.90
2023-04-10T08:57:31.648Z,24.80
2023-04-10T09:00:00.679Z,25.10
2023-04-10T09:02:43.697Z,25.30
2023-04-10T09:05:13.411Z,25.60
2023-04-10T09:07:46.993Z,25.60
2023-04-10T09:10:14.442Z,25.80
2023-04-10T09:12:46.724Z,26.00
2023-04-10T09:15:15.345Z,25.90
2023-04-10T09:18:06.190Z,25.60
2023-04-10T09:20:35.565Z,25.60
2023-04-10T09:23:20.101Z,25.70
2023-04-10T09:25:52.494Z,25.60
2023-04-10T09:28:21.464Z,25.70
2023-04-10T09:30:48.756Z,25.70
2023-04-10T09:33:25.838Z,25.60
2023-04-10T09:35:55.106Z,25.60
2023-04-10T09:38:23.321Z,26.00
2023-04-10T09:40:54.393Z,26.00
2023-04-10T09:43:27.144Z,26.20
2023-04-10T09:45:57.925Z,26.20
2023-04-10T09:48:26.820Z,26.10
2023-04-10T09:51:04.991Z,26.20
2023-04-10T09:53:56.695Z,26.30
2023-04-10T09:56:28.146Z,26.00
2023-04-10T09:59:00.071Z,26.10
2023-04-10T10:01:32.430Z,26.10
2023-04-10T10:04:04.190Z,26.20
2023-04-10T10:06:32.660Z,26.50
2023-04-10T10:09:04.705Z,26.80
2023-04-10T10:11:40.987Z,27.00
2023-04-10T10:14:16.151Z,27.00
2023-04-10T10:16:50.052Z,27.10
2023-04-10T10:19:26.438Z,27.10
2023-04-10T10:21:56.200Z,27.30
2023-04-10T10:24:26.465Z,27.50
2023-04-10T10:27:02.293Z,27.40
2023-04-10T10:29:41.356Z,27.70
2023-04-10T10:32:09.013Z,27.60
2023-04-10T10:34:40.349Z,27.70
2023-04-10T10:37:07.858Z,28.00
2023-04-10T10:40:02.544Z,28.20
2023-04-10T10:42:39.308Z,28.30
2023-04-10T10:45:34.967Z,28.50
2023-04-10T10:48:04.843Z,28.60
2023-04-10T10:50:56.519Z,28.90
2023-04-10T10:53:43.596Z,29.10
2023-04-10T10:56:23.065Z,29.70
2023-04-10T10:58:59.626Z,29.90
2023-04-10T11:01:27.752Z,30.30
2023-04-10T11:03:55.285Z,30.50
2023-04-10T11:06:52.033Z,30.60
2023-04-10T11:09:46.498Z,30.90
2023-04-10T11:12:14.610Z,31.20
2023-04-10T11:15:03.127Z,31.40
2023-04-10T11:17:54.585Z,31.50
2023-04-10T11:20:34.461Z,32.00
2023-04-10T11:23:12.881Z,32.50
2023-04-10T11:25:54.409Z,33.10
2023-04-10T11:28:42.321Z,33.50
2023-04-10T11:31:29.012Z,33.60
2023-04-10T11:34:08.229Z,33.70
2023-04-10T11:36:39.307Z,33.70
2023-04-10T11:39:09.522Z,33.80
2023-04-10T11:41:41.811Z,33.80
2023-04-10T11:44:39.709Z,34.00
2023-04-10T11:47:08.043Z,34.00
2023-04-10T11:49:37.264Z,34.00
2023-04-10T11:52:04.572Z,34.10
2023-04-10T11:54:33.752Z,34.20
2023-04-10T11:57:09.722Z,34.10
2023-04-10T11:59:42.270Z,34.00
2023-04-10T12:02:12.939Z,34.00
2023-04-10T12:04:44.016Z,34.30
2023-04-10T12:07:12.142Z,34.60
2023-04-10T12:09:39.600Z,34.70
2023-04-10T12:12:08.816Z,34.70
2023-04-10T12:14:38.769Z,35.20
2023-04-10T12:17:09.058Z,35.20
2023-04-10T12:19:38.987Z,35.30
2023-04-10T12:22:12.138Z,35.30
2023-04-10T12:24:55.520Z,35.30
2023-04-10T12:27:26.097Z,35.20
2023-04-10T12:29:58.637Z,35.30
2023-04-10T12:32:29.774Z,35.40
2023-04-10T12:34:59.016Z,35.40
2023-04-10T12:37:46.840Z,35.20
2023-04-10T12:40:14.452Z,35.20
2023-04-10T12:42:43.177Z,35.20
2023-04-10T12:45:14.049Z,35.20
2023-04-10T12:47:50.891Z,35.30
2023-04-10T12:50:20.999Z,35.30
2023-04-10T12:53:13.022Z,35.40
2023-04-10T12:55:40.684Z,35.50
2023-04-10T12:58:30.734Z,35.60
2023-04-10T13:00:58.995Z,35.60
2023-04-10T13:03:27.040Z,35.70
2023-04-10T13:05:54.880Z,35.60
2023-04-10T13:08:22.744Z,35.60
2023-04-10T13:10:51.166Z,35.40
2023-04-10T13:13:19.013Z,35.30
2023-04-10T13:15:46.431Z,35.40
2023-04-10T13:18:17.249Z,35.30
2023-04-10T13:20:44.714Z,35.10
2023-04-10T13:23:13.474Z,35.10
2023-04-10T13:25:43.609Z,35.10
2023-04-10T13:28:11.823Z,35.00
2023-04-10T13:30:44.062Z,35.00
2023-04-10T13:33:24.640Z,35.00
2023-04-10T13:35:54.940Z,35.10
2023-04-10T13:38:22.891Z,34.90
2023-04-10T13:40:50.322Z,34.90
2023-04-10T13:43:17.576Z,35.00
2023-04-10T13:45:45.577Z,35.00
2023-04-10T13:48:13.071Z,35.00
2023-04-10T13:50:40.245Z,35.10
2023-04-10T13:53:09.251Z,35.30
2023-04-10T13:55:40.294Z,35.50
2023-04-10T13:58:07.592Z,35.40
2023-04-10T14:00:34.999Z,35.50
2023-04-10T14:03:05.913Z,35.70
2023-04-10T14:05:35.481Z,35.50
2023-04-10T14:08:05.264Z,35.40
2023-04-10T14:10:42.685Z,35.60
2023-04-10T14:13:12.414Z,35.60
2023-04-10T14:15:41.017Z,35.70
2023-04-10T14:18:10.646Z,35.80
2023-04-10T14:20:38.064Z,36.00
2023-04-10T14:23:10.580Z,36.20
2023-04-10T14:25:38.037Z,36.10
2023-04-10T14:28:07.556Z,36.30
2023-04-10T14:30:34.870Z,36.40
2023-04-10T14:33:02.441Z,36.40
2023-04-10T14:35:30.208Z,36.60
2023-04-10T14:38:03.182Z,36.80
2023-04-10T14:40:39.529Z,36.80
2023-04-10T14:43:11.979Z,36.90
2023-04-10T14:45:39.161Z,37.00
2023-04-10T14:48:06.663Z,37.10
2023-04-10T14:50:34.765Z,37.10
2023-04-10T14:53:06.690Z,37.10
2023-04-10T14:55:33.995Z,37.20
2023-04-10T14:58:01.491Z,37.20
2023-04-10T15:00:30.094Z,37.30
2023-04-10T15:02:58.756Z,37.00
2023-04-10T15:05:27.313Z,37.20
2023-04-10T15:07:55.450Z,37.30
2023-04-10T15:10:23.064Z,37.50
2023-04-10T15:12:51.181Z,37.50
2023-04-10T15:15:19.289Z,37.60
2023-04-10T15:17:54.570Z,38.10
2023-04-10T15:20:24.942Z,38.10
2023-04-10T15:22:52.364Z,38.10
2023-04-10T15:25:23.219Z,38.10
2023-04-10T15:27:51.440Z,38.10
2023-04-10T15:30:19.514Z,38.30
2023-04-10T15:33:16.935Z,38.30
2023-04-10T15:35:52.187Z,38.30
2023-04-10T15:38:22.285Z,38.40
2023-04-10T15:40:49.550Z,38.40
2023-04-10T15:43:19.754Z,38.60
2023-04-10T15:45:46.965Z,38.80
2023-04-10T15:48:17.039Z,39.00
2023-04-10T15:53:52.065Z,39.30
2023-04-10T15:56:19.571Z,39.80
2023-04-10T15:58:47.238Z,39.80
2023-04-10T16:01:14.808Z,40.10
2023-04-10T16:03:42.251Z,40.20
2023-04-10T16:06:11.991Z,40.40
2023-04-10T16:08:39.275Z,40.80
2023-04-10T16:11:06.936Z,40.90
2023-04-10T16:13:34.309Z,41.10
2023-04-10T16:16:06.175Z,41.10
2023-04-10T16:18:33.303Z,41.20
2023-04-10T16:21:03.412Z,41.30
2023-04-10T16:23:30.968Z,41.30
2023-04-10T16:25:59.971Z,41.60
2023-04-10T16:28:28.443Z,41.50
2023-04-10T16:30:57.051Z,40.90
2023-04-10T16:33:25.246Z,40.50
2023-04-10T16:35:53.987Z,40.80
2023-04-10T16:38:22.510Z,41.00
2023-04-10T16:40:49.858Z,41.40
2023-04-10T16:43:17.155Z,41.40
2023-04-10T16:45:44.452Z,41.50
2023-04-10T16:48:11.798Z,41.60
2023-04-10T16:50:43.431Z,41.70
2023-04-10T16:53:13.801Z,41.80
2023-04-10T16:55:45.113Z,41.90
2023-04-10T16:58:12.107Z,42.10
2023-04-10T17:00:44.648Z,42.30
2023-04-10T17:03:14.590Z,42.50
2023-04-10T17:05:44.258Z,42.70
2023-04-10T17:08:11.614Z,42.90
2023-04-10T17:10:39.286Z,43.20
2023-04-10T17:13:06.844Z,43.40
2023-04-10T17:15:36.530Z,43.60
2023-04-10T17:18:04.262Z,43.70
2023-04-10T17:20:36.473Z,43.70
2023-04-10T17:23:06.038Z,43.90
2023-04-10T17:25:33.349Z,44.20
2023-04-10T17:28:01.105Z,44.00
2023-04-10T17:30:28.700Z,44.20
2023-04-10T17:32:56.385Z,44.50
2023-04-10T17:35:24.572Z,44.50
2023-04-10T17:37:52.599Z,44.50
2023-04-10T17:40:25.325Z,44.60
2023-04-10T17:42:52.670Z,44.90
2023-04-10T17:45:22.675Z,44.90
2023-04-10T17:47:49.779Z,45.00
2023-04-10T17:50:17.154Z,45.30
2023-04-10T17:52:45.047Z,45.30
2023-04-10T17:55:12.852Z,45.40
2023-04-10T17:57:44.485Z,45.50
2023-04-10T18:00:15.885Z,45.70
2023-04-10T18:02:43.749Z,45.90
2023-04-10T18:05:21.395Z,46.00
2023-04-10T18:07:49.007Z,46.10
2023-04-10T18:10:19.936Z,46.20
2023-04-10T18:12:47.288Z,46.90
2023-04-10T18:15:29.752Z,47.00
2023-04-10T18:17:58.314Z,46.90
2023-04-10T18:20:25.796Z,46.90
2023-04-10T18:22:55.840Z,46.90
2023-04-10T18:25:26.248Z,46.80
2023-04-10T18:28:13.766Z,46.80
2023-04-10T18:30:45.875Z,46.90
2023-04-10T18:33:15.060Z,47.10
2023-04-10T18:35:42.480Z,47.40
2023-04-10T18:38:09.827Z,47.20
2023-04-10T18:40:37.062Z,47.40
2023-04-10T18:43:05.359Z,47.40
2023-04-10T18:45:35.983Z,47.30
2023-04-10T18:48:06.983Z,47.30
2023-04-10T18:50:38.355Z,47.30
2023-04-10T18:53:06.219Z,47.20
2023-04-10T18:55:35.742Z,47.00
2023-04-10T18:58:03.879Z,47.00
2023-04-10T19:00:32.144Z,47.10
2023-04-10T19:03:02.532Z,47.10
2023-04-10T19:05:33.341Z,47.40
2023-04-10T19:08:04.654Z,47.50
2023-04-10T19:10:32.518Z,47.40
2023-04-10T19:13:12.043Z,47.40
2023-04-10T19:15:48.306Z,47.40
2023-04-10T19:18:19.088Z,47.60
2023-04-10T19:20:53.190Z,47.90
2023-04-10T19:23:23.395Z,48.10
2023-04-10T19:25:54.997Z,48.20
2023-04-10T19:28:23.247Z,48.40
2023-04-10T19:30:53.745Z,48.90
2023-04-10T19:33:30.607Z,48.90
2023-04-10T19:36:00.229Z,48.60
2023-04-10T19:38:34.564Z,48.70
2023-04-10T19:41:14.598Z,48.90
2023-04-10T19:43:44.762Z,49.20
2023-04-10T19:46:19.392Z,49.30
2023-04-10T19:48:49.514Z,49.50
2023-04-10T19:51:19.713Z,49.50
2023-04-10T19:53:47.440Z,49.60
2023-04-10T19:56:20.642Z,49.60
2023-04-10T19:58:48.188Z,49.60
2023-04-10T20:01:15.492Z,49.50
2023-04-10T20:03:43.111Z,49.80
2023-04-10T20:06:10.863Z,50.10
2023-04-10T20:08:38.401Z,50.30
2023-04-10T20:11:06.849Z,50.40
2023-04-10T20:13:34.967Z,50.80
2023-04-10T20:16:02.968Z,50.50
2023-04-10T20:18:33.783Z,50.40
2023-04-10T20:21:01.133Z,50.70
2023-04-10T20:23:37.189Z,50.40
2023-04-10T20:26:04.785Z,50.40
2023-04-10T20:28:32.209Z,50.60
2023-04-10T20:31:02.110Z,50.50
2023-04-10T20:33:35.244Z,50.60
2023-04-10T20:36:08.347Z,50.60
2023-04-10T20:38:35.792Z,50.80
2023-04-10T20:41:05.852Z,50.60
2023-04-10T20:43:33.257Z,50.60
2023-04-10T20:46:05.418Z,50.50
2023-04-10T20:48:33.013Z,50.50
2023-04-10T20:51:00.553Z,50.00
2023-04-10T20:53:30.406Z,49.80
2023-04-10T20:56:01.026Z,49.80
2023-04-10T20:58:28.536Z,49.80
2023-04-10T21:00:56.843Z,50.20
2023-04-10T21:03:26.578Z,49.80
2023-04-10T21:05:58.955Z,49.70
2023-04-10T21:08:28.806Z,49.90
2023-04-10T21:11:01.541Z,49.80
2023-04-10T21:13:28.913Z,49.60
2023-04-10T21:15:56.120Z,49.50
2023-04-10T21:18:26.004Z,49.40
2023-04-10T21:20:55.707Z,49.40
2023-04-10T21:23:23.478Z,49.30
2023-04-10T21:25:56.960Z,49.30
2023-04-10T21:28:24.315Z,49.30
2023-04-10T21:30:51.424Z,49.30
2023-04-10T21:33:18.782Z,49.30
2023-04-10T21:35:46.788Z,49.40
2023-04-10T21:38:14.344Z,49.50
2023-04-10T21:40:41.638Z,49.80
2023-04-10T21:43:10.095Z,50.10
2023-04-10T21:45:39.598Z,51.00
2023-04-10T21:48:09.760Z,51.00
2023-04-10T21:50:46.689Z,51.20
2023-04-10T21:53:16.174Z,51.40
2023-04-10T21:55:43.478Z,51.70
2023-04-10T21:58:19.052Z,51.40
2023-04-10T22:00:47.243Z,51.40
2023-04-10T22:03:20.147Z,51.60
2023-04-10T22:05:51.493Z,51.70
2023-04-10T22:08:20.326Z,51.80
2023-04-10T22:10:48.434Z,51.90
2023-04-10T22:13:27.266Z,51.80
2023-04-10T22:16:02.233Z,52.10
2023-04-10T22:18:31.537Z,52.30
2023-04-10T22:20:58.674Z,52.40
2023-04-10T22:23:28.518Z,52.40
2023-04-10T22:25:55.894Z,52.60
2023-04-10T22:28:25.191Z,52.70
2023-04-10T22:30:54.765Z,52.80
2023-04-10T22:33:22.483Z,53.00
2023-04-10T22:35:52.910Z,53.20
2023-04-10T22:38:23.300Z,53.20
2023-04-10T22:40:50.482Z,53.40
2023-04-10T22:43:21.050Z,53.50
2023-04-10T22:45:48.652Z,53.10
2023-04-10T22:48:15.810Z,53.20
2023-04-10T22:50:46.476Z,53.10
2023-04-10T22:53:15.590Z,53.00
2023-04-10T22:55:46.595Z,53.20
2023-04-10T22:58:14.546Z,53.00
2023-04-10T23:00:42.083Z,53.00
2023-04-10T23:03:09.135Z,53.20
2023-04-10T23:05:38.401Z,53.10
2023-04-10T23:08:11.820Z,53.00
2023-04-10T23:10:39.664Z,52.90
2023-04-10T23:13:07.132Z,53.10
2023-04-10T23:15:34.641Z,53.10
2023-04-10T23:18:02.037Z,53.10
2023-04-10T23:20:31.838Z,52.90
2023-04-10T23:22:59.043Z,53.20
2023-04-10T23:25:26.822Z,53.10
2023-04-10T23:27:58.290Z,53.20
2023-04-10T23:33:07.708Z,53.50
2023-04-10T23:35:35.149Z,53.60
2023-04-10T23:38:02.561Z,53.80
2023-04-10T23:40:29.781Z,53.70
2023-04-10T23:43:00.670Z,53.80
2023-04-10T23:45:27.714Z,54.10
2023-04-10T23:47:55.127Z,54.30
2023-04-10T23:50:26.416Z,55.60
2023-04-10T23:52:56.379Z,55.60
2023-04-10T23:55:23.954Z,55.30
2023-04-10T23:57:51.712Z,55.70
